Wetterdaten: Woche 03.01.22 - 09.01.22 (KW1)
Datum Zeit Temp. Aussen Temp. o. S. Temp +5cm Feuchte Auss Luftdruck Regen Sonnenschein Regendauer Solar Windben Empfang
03.01.2022 00:00 10,2 C 9,4 C 6,1 C 92 % 1012,4 hPa 0,0 l/m 0,00 h 0,00 h 0 W/m 21,7 km/h (4 Bft) 97,09 %
03.01.2022 01:00 10,2 C 9,4 C 6,0 C 90 % 1012,6 hPa 0,0 l/m 0,00 h 0,00 h 0 W/m 24,9 km/h (4 Bft) 98,15 %
03.01.2022 02:00 10,1 C 9,2 C 6,6 C 89 % 1012,9 hPa 0,0 l/m 0,00 h 0,00 h 0 W/m 21,5 km/h (4 Bft) 96,30 %
03.01.2022 03:00 9,9 C 8,9 C 6,7 C 88 % 1013,2 hPa 0,0 l/m 0,00 h 0,00 h 0 W/m 22,8 km/h (4 Bft) 98,43 %
03.01.2022 04:00 9,7 C 8,7 C 6,2 C 88 % 1013,3 hPa 0,0 l/m 0,00 h 0,00 h 0 W/m 20,1 km/h (4 Bft) 97,44 %
03.01.2022 05:00 9,4 C 8,4 C 6,1 C 90 % 1013,2 hPa 0,0 l/m 0,00 h 0,00 h 0 W/m 20,8 km/h (4 Bft) 96,30 %
03.01.2022 06:00 9,7 C 8,9 C 6,4 C 88 % 1013,0 hPa 0,0 l/m 0,00 h 0,00 h 0 W/m 22,2 km/h (4 Bft) 98,05 %
03.01.2022 07:00 9,8 C 9,0 C 6,6 C 88 % 1012,5 hPa 0,0 l/m 0,00 h 0,00 h 0 W/m 22,1 km/h (4 Bft) 95,63 %
03.01.2022 08:00 9,6 C 8,8 C 6,1 C 89 % 1012,4 hPa 0,0 l/m 0,00 h 0,17 h 7 W/m 21,9 km/h (4 Bft) 98,29 %
03.01.2022 09:00 9,7 C 9,1 C 6,2 C 90 % 1012,6 hPa 0,0 l/m 0,00 h 0,23 h 36 W/m 23,1 km/h (4 Bft) 96,64 %
03.01.2022 10:00 10,3 C 9,9 C 7,1 C 88 % 1012,5 hPa 0,0 l/m 0,20 h 0,00 h 92 W/m 22,1 km/h (4 Bft) 95,66 %
03.01.2022 11:00 10,7 C 10,5 C 7,3 C 86 % 1012,3 hPa 0,0 l/m 0,13 h 0,00 h 96 W/m 20,5 km/h (4 Bft) 98,29 %
03.01.2022 12:00 11,4 C 11,6 C 8,2 C 85 % 1011,6 hPa 0,0 l/m 0,60 h 0,00 h 174 W/m 23,2 km/h (4 Bft) 98,86 %
03.01.2022 13:00 10,8 C 9,9 C 6,6 C 87 % 1010,9 hPa 0,0 l/m 0,00 h 0,60 h 35 W/m 22,3 km/h (4 Bft) 93,35 %
03.01.2022 14:00 9,9 C 9,4 C 6,0 C 90 % 1010,2 hPa 0,0 l/m 0,00 h 0,17 h 41 W/m 18,0 km/h (3 Bft) 99,64 %
03.01.2022 15:00 9,4 C 8,5 C 5,5 C 91 % 1009,8 hPa 1,0 l/m 0,00 h 0,90 h 13 W/m 18,9 km/h (3 Bft) 97,15 %
03.01.2022 16:00 8,6 C 7,3 C 5,0 C 95 % 1009,1 hPa 1,0 l/m 0,00 h 1,00 h 4 W/m 15,9 km/h (3 Bft) 96,37 %
03.01.2022 17:00 8,4 C 7,4 C 5,0 C 96 % 1008,3 hPa 0,4 l/m 0,00 h 0,43 h 0 W/m 13,5 km/h (3 Bft) 98,36 %
03.01.2022 18:00 8,3 C 7,4 C 5,0 C 96 % 1007,7 hPa 0,0 l/m 0,00 h 0,00 h 0 W/m 9,1 km/h (2 Bft) 97,15 %
03.01.2022 19:00 8,5 C 7,8 C 5,0 C 97 % 1007,1 hPa 0,0 l/m 0,00 h 0,00 h 0 W/m 9,0 km/h (2 Bft) 96,86 %
03.01.2022 20:00 8,6 C 7,8 C 5,3 C 96 % 1006,5 hPa 0,0 l/m 0,00 h 0,00 h 0 W/m 10,0 km/h (2 Bft) 96,66 %
03.01.2022 21:00 8,8 C 7,9 C 5,6 C 96 % 1005,8 hPa 0,0 l/m 0,00 h 0,00 h 0 W/m 12,2 km/h (2 Bft) 96,28 %
03.01.2022 22:00 9,0 C 8,3 C 5,6 C 96 % 1005,3 hPa 0,0 l/m 0,00 h 0,03 h 0 W/m 10,0 km/h (2 Bft) 96,25 %
03.01.2022 23:00 8,8 C 8,1 C 5,4 C 94 % 1004,5 hPa 0,0 l/m 0,00 h 0,07 h 0 W/m 20,9 km/h (4 Bft) 96,33 %
04.01.2022 00:00 8,3 C 7,5 C 5,0 C 93 % 1003,8 hPa 0,2 l/m 0,00 h 0,30 h 0 W/m 14,0 km/h (3 Bft) 98,00 %
04.01.2022 01:00 7,8 C 7,0 C 4,5 C 94 % 1002,8 hPa 0,2 l/m 0,00 h 1,00 h 0 W/m 13,4 km/h (3 Bft) 97,30 %
04.01.2022 02:00 7,5 C 6,7 C 4,4 C 96 % 1001,8 hPa 0,4 l/m 0,00 h 0,90 h 0 W/m 8,5 km/h (2 Bft) 96,94 %
04.01.2022 03:00 7,2 C 6,4 C 4,4 C 97 % 1001,1 hPa 0,6 l/m 0,00 h 0,87 h 0 W/m 9,6 km/h (2 Bft) 99,71 %
04.01.2022 04:00 7,1 C 6,2 C 4,4 C 97 % 1000,3 hPa 0,0 l/m 0,00 h 0,03 h 0 W/m 9,9 km/h (2 Bft) 95,09 %
04.01.2022 05:00 7,0 C 6,1 C 4,4 C 98 % 998,9 hPa 0,0 l/m 0,00 h 0,00 h 0 W/m 8,5 km/h (2 Bft) 98,79 %
04.01.2022 06:00 6,9 C 6,1 C 4,4 C 98 % 998,5 hPa 0,0 l/m 0,00 h 0,00 h 0 W/m 7,2 km/h (2 Bft) 96,76 %
04.01.2022 07:00 6,9 C 6,1 C 4,5 C 98 % 997,8 hPa 0,0 l/m 0,00 h 0,03 h 0 W/m 7,7 km/h (2 Bft) 96,36 %
04.01.2022 08:00 6,8 C 6,1 C 4,4 C 98 % 997,4 hPa 0,2 l/m 0,00 h 0,43 h 0 W/m 5,8 km/h (2 Bft) 98,22 %
04.01.2022 09:00 6,8 C 6,1 C 4,8 C 98 % 997,1 hPa 0,4 l/m 0,00 h 0,80 h 10 W/m 7,4 km/h (2 Bft) 96,36 %
04.01.2022 10:00 7,0 C 6,4 C 5,0 C 98 % 997,3 hPa 0,0 l/m 0,00 h 0,00 h 16 W/m 8,3 km/h (2 Bft) 97,44 %
04.01.2022 11:00 7,2 C 6,7 C 5,0 C 98 % 997,2 hPa 0,0 l/m 0,00 h 0,03 h 29 W/m 10,5 km/h (2 Bft) 97,73 %
04.01.2022 12:00 7,4 C 7,1 C 5,0 C 97 % 997,0 hPa 0,0 l/m 0,00 h 0,00 h 38 W/m 12,5 km/h (3 Bft) 97,29 %
04.01.2022 13:00 7,7 C 7,2 C 5,6 C 97 % 996,8 hPa 0,0 l/m 0,00 h 0,00 h 38 W/m 14,0 km/h (3 Bft) 97,51 %
04.01.2022 14:00 7,8 C 7,2 C 5,6 C 96 % 996,5 hPa 0,0 l/m 0,00 h 0,13 h 24 W/m 13,5 km/h (3 Bft) 95,51 %
04.01.2022 15:00 7,7 C 6,9 C 5,2 C 96 % 996,8 hPa 0,4 l/m 0,00 h 0,50 h 10 W/m 14,3 km/h (3 Bft) 96,66 %
04.01.2022 16:00 6,8 C 6,1 C 4,4 C 95 % 997,3 hPa 0,0 l/m 0,00 h 0,37 h 6 W/m 10,4 km/h (2 Bft) 98,65 %
04.01.2022 17:00 6,6 C 5,7 C 4,4 C 96 % 997,9 hPa 1,0 l/m 0,00 h 0,93 h 0 W/m 7,7 km/h (2 Bft) 95,30 %
04.01.2022 18:00 6,4 C 5,6 C 4,4 C 97 % 998,0 hPa 0,4 l/m 0,00 h 0,77 h 0 W/m 5,1 km/h (1 Bft) 99,50 %
04.01.2022 19:00 6,2 C 5,5 C 4,2 C 98 % 998,2 hPa 0,0 l/m 0,00 h 0,33 h 0 W/m 6,1 km/h (2 Bft) 96,91 %
04.01.2022 20:00 5,0 C 4,5 C 3,1 C 97 % 998,5 hPa 0,2 l/m 0,00 h 0,30 h 0 W/m 10,7 km/h (2 Bft) 95,69 %
04.01.2022 21:00 4,6 C 3,9 C 2,5 C 96 % 999,0 hPa 0,6 l/m 0,00 h 0,53 h 0 W/m 5,4 km/h (1 Bft) 97,86 %
04.01.2022 22:00 4,9 C 4,2 C 2,8 C 96 % 999,2 hPa 0,0 l/m 0,00 h 0,00 h 0 W/m 3,0 km/h (1 Bft) 96,23 %
04.01.2022 23:00 4,4 C 3,8 C 2,3 C 96 % 1000,0 hPa 1,0 l/m 0,00 h 0,70 h 0 W/m 14,5 km/h (3 Bft) 96,30 %
05.01.2022 00:00 3,4 C 2,8 C 1,7 C 95 % 1000,8 hPa 0,6 l/m 0,00 h 1,00 h 0 W/m 11,6 km/h (2 Bft) 96,66 %
05.01.2022 01:00 3,2 C 2,4 C 1,6 C 96 % 1001,1 hPa 0,2 l/m 0,00 h 0,47 h 0 W/m 8,5 km/h (2 Bft) 97,64 %
05.01.2022 02:00 3,0 C 2,3 C 1,4 C 97 % 1001,3 hPa 0,0 l/m 0,00 h 0,00 h 0 W/m 11,2 km/h (2 Bft) 96,08 %
05.01.2022 03:00 2,6 C 1,9 C 0,8 C 97 % 1001,8 hPa 0,0 l/m 0,00 h 0,00 h 0 W/m 13,0 km/h (3 Bft) 94,51 %
05.01.2022 04:00 2,0 C 1,3 C 0,2 C 96 % 1002,5 hPa 0,0 l/m 0,00 h 0,00 h 0 W/m 11,9 km/h (2 Bft) 98,51 %
05.01.2022 05:00 1,6 C 0,9 C -0,4 C 94 % 1003,3 hPa 0,0 l/m 0,00 h 0,00 h 0 W/m 14,1 km/h (3 Bft) 97,08 %
05.01.2022 06:00 1,4 C 0,8 C -0,6 C 93 % 1003,6 hPa 0,0 l/m 0,00 h 0,00 h 0 W/m 15,3 km/h (3 Bft) 98,43 %
05.01.2022 07:00 1,6 C 1,1 C -0,6 C 93 % 1003,9 hPa 0,0 l/m 0,00 h 0,00 h 0 W/m 17,1 km/h (3 Bft) 93,91 %
05.01.2022 08:00 1,9 C 1,3 C -0,2 C 92 % 1004,4 hPa 0,0 l/m 0,00 h 0,00 h 8 W/m 20,7 km/h (4 Bft) 99,50 %
05.01.2022 09:00 2,3 C 2,0 C 0,4 C 92 % 1005,0 hPa 0,0 l/m 0,00 h 0,00 h 17 W/m 20,5 km/h (4 Bft) 97,08 %
05.01.2022 10:00 2,9 C 2,8 C 1,1 C 92 % 1005,3 hPa 0,0 l/m 0,00 h 0,00 h 64 W/m 24,9 km/h (4 Bft) 96,44 %
05.01.2022 11:00 3,5 C 3,3 C 1,6 C 91 % 1005,6 hPa 0,2 l/m 0,00 h 0,37 h 84 W/m 26,8 km/h (4 Bft) 98,43 %
05.01.2022 12:00 4,0 C 3,8 C 1,3 C 93 % 1005,6 hPa 0,0 l/m 0,13 h 0,83 h 96 W/m 26,9 km/h (4 Bft) 97,29 %
05.01.2022 13:00 4,6 C 4,4 C 1,9 C 91 % 1006,1 hPa 0,0 l/m 0,00 h 0,43 h 65 W/m 24,6 km/h (4 Bft) 96,87 %
05.01.2022 14:00 4,7 C 4,4 C 1,9 C 92 % 1006,7 hPa 0,2 l/m 0,00 h 0,70 h 44 W/m 21,5 km/h (4 Bft) 98,65 %
05.01.2022 15:00 4,9 C 4,4 C 1,7 C 92 % 1007,4 hPa 0,2 l/m 0,00 h 0,73 h 17 W/m 21,5 km/h (4 Bft) 97,15 %
05.01.2022 16:00 5,0 C 4,3 C 1,8 C 93 % 1008,4 hPa 0,4 l/m 0,00 h 0,67 h 18 W/m 20,2 km/h (4 Bft) 96,79 %
05.01.2022 17:00 4,8 C 4,0 C 1,7 C 95 % 1009,5 hPa 0,2 l/m 0,00 h 0,40 h 0 W/m 17,1 km/h (3 Bft) 97,72 %
05.01.2022 18:00 4,8 C 4,1 C 1,8 C 95 % 1010,3 hPa 0,0 l/m 0,00 h 0,00 h 0 W/m 18,3 km/h (3 Bft) 97,93 %
05.01.2022 19:00 4,8 C 4,0 C 2,2 C 95 % 1011,1 hPa 0,4 l/m 0,00 h 0,37 h 0 W/m 17,0 km/h (3 Bft) 96,41 %
05.01.2022 20:00 4,6 C 3,9 C 2,0 C 96 % 1012,0 hPa 0,0 l/m 0,00 h 0,03 h 0 W/m 14,7 km/h (3 Bft) 96,30 %
05.01.2022 21:00 4,5 C 3,7 C 2,1 C 97 % 1012,7 hPa 1,8 l/m 0,00 h 0,37 h 0 W/m 13,4 km/h (3 Bft) 98,21 %
05.01.2022 22:00 4,2 C 3,3 C 1,8 C 97 % 1013,3 hPa 0,0 l/m 0,00 h 0,00 h 0 W/m 10,9 km/h (2 Bft) 96,16 %
05.01.2022 23:00 3,7 C 3,0 C 1,6 C 97 % 1013,8 hPa 0,0 l/m 0,00 h 0,00 h 0 W/m 10,0 km/h (2 Bft) 98,01 %
06.01.2022 00:00 3,4 C 2,6 C 1,1 C 97 % 1014,5 hPa 0,0 l/m 0,00 h 0,00 h 0 W/m 9,1 km/h (2 Bft) 93,77 %
06.01.2022 01:00 3,0 C 2,2 C 1,0 C 98 % 1015,1 hPa 0,0 l/m 0,00 h 0,00 h 0 W/m 7,5 km/h (2 Bft) 95,01 %
06.01.2022 02:00 2,5 C 1,8 C 0,6 C 97 % 1015,5 hPa 0,0 l/m 0,00 h 0,00 h 0 W/m 8,0 km/h (2 Bft) 97,49 %
06.01.2022 03:00 2,1 C 1,5 C 0,5 C 97 % 1015,9 hPa 0,0 l/m 0,00 h 0,00 h 0 W/m 7,1 km/h (2 Bft) 96,72 %
06.01.2022 04:00 2,0 C 1,2 C 0,3 C 97 % 1016,3 hPa 0,2 l/m 0,00 h 0,00 h 0 W/m 6,3 km/h (2 Bft) 99,34 %
06.01.2022 05:00 1,7 C 0,9 C -0,1 C 97 % 1016,8 hPa 0,0 l/m 0,00 h 0,00 h 0 W/m 5,1 km/h (1 Bft) 95,12 %
06.01.2022 06:00 1,3 C 0,6 C -0,6 C 97 % 1017,3 hPa 0,0 l/m 0,00 h 0,00 h 0 W/m 4,8 km/h (1 Bft) 97,04 %
06.01.2022 07:00 1,0 C 0,2 C -0,7 C 97 % 1018,0 hPa 0,0 l/m 0,00 h 0,00 h 0 W/m 3,7 km/h (1 Bft) 97,87 %
06.01.2022 08:00 0,7 C 0,0 C -1,1 C 97 % 1018,8 hPa 0,0 l/m 0,00 h 0,00 h 7 W/m 2,9 km/h (1 Bft) 96,71 %
06.01.2022 09:00 0,8 C 0,4 C -0,8 C 98 % 1019,5 hPa 0,0 l/m 0,00 h 0,00 h 26 W/m 2,3 km/h (1 Bft) 97,66 %
06.01.2022 10:00 1,8 C 2,2 C 0,5 C 98 % 1019,9 hPa 0,0 l/m 0,50 h 0,00 h 117 W/m 4,6 km/h (1 Bft) 96,94 %
06.01.2022 11:00 2,6 C 3,1 C 1,1 C 98 % 1020,1 hPa 0,0 l/m 0,03 h 0,00 h 89 W/m 4,7 km/h (1 Bft) 97,44 %
06.01.2022 12:00 3,8 C 5,9 C 2,1 C 97 % 1020,1 hPa 0,0 l/m 0,30 h 0,00 h 146 W/m 5,7 km/h (1 Bft) 99,29 %
06.01.2022 13:00 5,0 C 6,8 C 2,9 C 94 % 1020,0 hPa 0,0 l/m 0,30 h 0,00 h 133 W/m 7,3 km/h (2 Bft) 96,30 %
06.01.2022 14:00 5,3 C 6,3 C 3,6 C 92 % 1019,7 hPa 0,0 l/m 0,47 h 0,00 h 136 W/m 11,4 km/h (2 Bft) 97,79 %
06.01.2022 15:00 5,7 C 5,2 C 3,5 C 89 % 1019,6 hPa 0,0 l/m 0,37 h 0,00 h 68 W/m 11,5 km/h (2 Bft) 98,72 %
06.01.2022 16:00 4,7 C 3,8 C 2,6 C 89 % 1019,7 hPa 0,0 l/m 0,03 h 0,00 h 15 W/m 13,3 km/h (3 Bft) 97,30 %
06.01.2022 17:00 3,7 C 2,7 C 1,6 C 91 % 1019,7 hPa 0,0 l/m 0,00 h 0,00 h 0 W/m 7,5 km/h (2 Bft) 97,08 %
06.01.2022 18:00 2,9 C 2,0 C 0,9 C 93 % 1019,8 hPa 0,0 l/m 0,00 h 0,00 h 0 W/m 8,1 km/h (2 Bft) 98,01 %
06.01.2022 19:00 2,3 C 1,1 C 0,6 C 94 % 1019,9 hPa 0,0 l/m 0,00 h 0,00 h 0 W/m 9,4 km/h (2 Bft) 98,52 %
06.01.2022 20:00 1,9 C 1,1 C 0,1 C 94 % 1019,5 hPa 0,0 l/m 0,00 h 0,00 h 0 W/m 10,1 km/h (2 Bft) 95,73 %
06.01.2022 21:00 1,8 C 1,3 C 0,3 C 94 % 1018,8 hPa 0,0 l/m 0,00 h 0,00 h 0 W/m 12,2 km/h (3 Bft) 98,43 %
06.01.2022 22:00 2,2 C 1,7 C 0,6 C 92 % 1018,2 hPa 0,0 l/m 0,00 h 0,00 h 0 W/m 12,6 km/h (3 Bft) 98,44 %
06.01.2022 23:00 2,1 C 1,4 C 0,4 C 90 % 1017,9 hPa 0,0 l/m 0,00 h 0,00 h 0 W/m 12,8 km/h (3 Bft) 94,22 %
07.01.2022 00:00 2,2 C 1,7 C 0,6 C 89 % 1017,2 hPa 0,0 l/m 0,00 h 0,00 h 0 W/m 14,6 km/h (3 Bft) 97,35 %
07.01.2022 01:00 2,3 C 1,8 C 0,6 C 89 % 1016,4 hPa 0,0 l/m 0,00 h 0,00 h 0 W/m 14,8 km/h (3 Bft) 95,96 %
07.01.2022 02:00 2,7 C 2,2 C 0,6 C 88 % 1015,6 hPa 0,0 l/m 0,00 h 0,00 h 0 W/m 17,3 km/h (3 Bft) 95,45 %
07.01.2022 03:00 3,0 C 2,3 C 0,1 C 88 % 1015,0 hPa 0,2 l/m 0,00 h 0,87 h 0 W/m 28,0 km/h (4 Bft) 95,21 %
07.01.2022 04:00 2,8 C 2,4 C 0,0 C 90 % 1013,8 hPa 0,0 l/m 0,00 h 0,23 h 0 W/m 17,9 km/h (3 Bft) 96,99 %
07.01.2022 05:00 3,4 C 2,8 C 0,6 C 86 % 1013,1 hPa 0,0 l/m 0,00 h 0,10 h 0 W/m 19,7 km/h (3 Bft) 96,38 %
07.01.2022 06:00 3,1 C 2,1 C -0,1 C 91 % 1012,9 hPa 1,0 l/m 0,00 h 0,93 h 0 W/m 22,4 km/h (4 Bft) 97,44 %
07.01.2022 07:00 2,9 C 2,3 C 0,0 C 94 % 1012,5 hPa 0,0 l/m 0,00 h 0,47 h 0 W/m 24,6 km/h (4 Bft) 99,00 %
07.01.2022 08:00 3,4 C 2,9 C 0,5 C 94 % 1012,5 hPa 0,2 l/m 0,00 h 0,00 h 0 W/m 24,7 km/h (4 Bft) 95,19 %
07.01.2022 09:00 3,7 C 3,3 C 0,6 C 93 % 1012,5 hPa 0,0 l/m 0,00 h 0,00 h 14 W/m 24,9 km/h (4 Bft) 98,85 %
07.01.2022 10:00 4,0 C 3,6 C 1,0 C 92 % 1012,3 hPa 0,0 l/m 0,00 h 0,00 h 35 W/m 23,6 km/h (4 Bft) 98,08 %
07.01.2022 11:00 4,4 C 4,0 C 1,1 C 91 % 1012,2 hPa 0,0 l/m 0,00 h 0,00 h 55 W/m 24,6 km/h (4 Bft) 96,47 %
07.01.2022 12:00 4,8 C 4,4 C 1,8 C 90 % 1011,8 hPa 0,0 l/m 0,00 h 0,00 h 74 W/m 25,6 km/h (4 Bft) 98,19 %
07.01.2022 13:00 5,2 C 5,2 C 2,6 C 90 % 1011,4 hPa 0,0 l/m 0,03 h 0,00 h 78 W/m 22,7 km/h (4 Bft) 97,72 %
07.01.2022 14:00 5,1 C 4,7 C 1,8 C 90 % 1011,1 hPa 0,0 l/m 0,07 h 0,57 h 39 W/m 29,6 km/h (5 Bft) 95,88 %
07.01.2022 15:00 3,7 C 3,3 C 0,6 C 91 % 1010,9 hPa 0,0 l/m 0,00 h 0,43 h 28 W/m 18,2 km/h (3 Bft) 98,15 %
07.01.2022 16:00 3,7 C 3,2 C 0,6 C 93 % 1010,9 hPa 0,0 l/m 0,00 h 0,00 h 13 W/m 13,6 km/h (3 Bft) 96,57 %
07.01.2022 17:00 3,9 C 3,3 C 1,0 C 93 % 1011,0 hPa 0,0 l/m 0,00 h 0,00 h 0 W/m 15,6 km/h (3 Bft) 97,58 %
07.01.2022 18:00 3,6 C 2,9 C 0,8 C 92 % 1010,8 hPa 0,0 l/m 0,00 h 0,00 h 0 W/m 14,5 km/h (3 Bft) 97,22 %
07.01.2022 19:00 2,9 C 2,2 C 0,1 C 92 % 1010,8 hPa 0,0 l/m 0,00 h 0,00 h 0 W/m 17,8 km/h (3 Bft) 97,77 %
07.01.2022 20:00 2,5 C 1,7 C 0,0 C 93 % 1010,8 hPa 0,0 l/m 0,00 h 0,00 h 0 W/m 16,3 km/h (3 Bft) 96,18 %
07.01.2022 21:00 2,6 C 2,1 C 0,0 C 94 % 1010,7 hPa 0,0 l/m 0,00 h 0,00 h 0 W/m 15,5 km/h (3 Bft) 97,22 %
07.01.2022 22:00 2,7 C 2,1 C 0,0 C 94 % 1010,4 hPa 0,0 l/m 0,00 h 0,00 h 0 W/m 9,8 km/h (2 Bft) 97,59 %
07.01.2022 23:00 2,5 C 1,5 C -0,1 C 94 % 1010,4 hPa 0,0 l/m 0,00 h 0,00 h 0 W/m 2,5 km/h (1 Bft) 95,24 %
08.01.2022 00:00 2,3 C 1,7 C 0,0 C 94 % 1010,4 hPa 0,0 l/m 0,00 h 0,00 h 0 W/m 2,1 km/h (1 Bft) 96,62 %
08.01.2022 01:00 2,3 C 1,4 C -0,1 C 95 % 1010,5 hPa 0,0 l/m 0,00 h 0,00 h 0 W/m 1,8 km/h (1 Bft) 98,79 %
08.01.2022 02:00 1,7 C 0,6 C -1,0 C 95 % 1010,8 hPa 0,0 l/m 0,00 h 0,00 h 0 W/m 2,7 km/h (1 Bft) 97,22 %
08.01.2022 03:00 1,2 C 0,1 C -1,1 C 96 % 1010,9 hPa 0,0 l/m 0,00 h 0,00 h 0 W/m 3,0 km/h (1 Bft) 95,41 %
08.01.2022 04:00 1,0 C 0,1 C -1,1 C 96 % 1011,1 hPa 0,0 l/m 0,00 h 0,00 h 0 W/m 7,0 km/h (2 Bft) 98,55 %
08.01.2022 05:00 0,9 C 0,0 C -1,1 C 97 % 1011,6 hPa 0,0 l/m 0,00 h 0,00 h 0 W/m 8,0 km/h (2 Bft) 98,08 %
08.01.2022 06:00 0,5 C -0,5 C -1,6 C 97 % 1011,9 hPa 0,0 l/m 0,00 h 0,00 h 0 W/m 5,1 km/h (1 Bft) 96,09 %
08.01.2022 07:00 0,4 C -0,6 C -1,6 C 97 % 1012,4 hPa 0,0 l/m 0,00 h 0,00 h 0 W/m 10,1 km/h (2 Bft) 96,46 %
08.01.2022 08:00 0,5 C -0,2 C -1,2 C 97 % 1012,7 hPa 0,0 l/m 0,00 h 0,00 h 12 W/m 11,9 km/h (2 Bft) 97,86 %
08.01.2022 09:00 1,1 C 0,9 C -0,4 C 97 % 1012,6 hPa 0,2 l/m 0,47 h 0,00 h 46 W/m 17,0 km/h (3 Bft) 96,16 %
08.01.2022 10:00 1,9 C 2,0 C 0,6 C 97 % 1012,4 hPa 0,0 l/m 0,23 h 0,00 h 89 W/m 17,2 km/h (3 Bft) 99,15 %
08.01.2022 11:00 2,6 C 2,6 C 1,4 C 96 % 1011,6 hPa 0,0 l/m 0,00 h 0,00 h 90 W/m 18,7 km/h (3 Bft) 95,32 %
08.01.2022 12:00 3,1 C 3,2 C 1,8 C 92 % 1010,1 hPa 0,0 l/m 0,00 h 0,00 h 104 W/m 18,6 km/h (3 Bft) 95,96 %
08.01.2022 13:00 4,0 C 4,0 C 2,2 C 87 % 1008,8 hPa 0,0 l/m 0,00 h 0,00 h 96 W/m 19,7 km/h (3 Bft) 96,94 %
08.01.2022 14:00 4,3 C 3,8 C 1,9 C 85 % 1007,1 hPa 0,0 l/m 0,00 h 0,03 h 59 W/m 21,0 km/h (4 Bft) 97,87 %
08.01.2022 15:00 3,3 C 2,4 C 0,1 C 89 % 1005,3 hPa 0,6 l/m 0,00 h 1,00 h 14 W/m 24,4 km/h (4 Bft) 96,58 %
08.01.2022 16:00 2,3 C 1,7 C -0,6 C 94 % 1003,3 hPa 0,4 l/m 0,00 h 1,00 h 5 W/m 24,5 km/h (4 Bft) 96,57 %
08.01.2022 17:00 2,4 C 1,8 C -0,1 C 96 % 1001,2 hPa 0,6 l/m 0,00 h 0,90 h 0 W/m 27,0 km/h (4 Bft) 98,22 %
08.01.2022 18:00 2,8 C 2,2 C 0,3 C 96 % 999,3 hPa 0,6 l/m 0,00 h 0,93 h 0 W/m 25,5 km/h (4 Bft) 95,49 %
08.01.2022 19:00 3,1 C 2,4 C 0,6 C 96 % 997,4 hPa 1,2 l/m 0,00 h 0,93 h 0 W/m 26,3 km/h (4 Bft) 97,58 %
08.01.2022 20:00 3,4 C 2,8 C 1,0 C 96 % 995,3 hPa 1,0 l/m 0,00 h 0,90 h 0 W/m 25,8 km/h (4 Bft) 99,22 %
08.01.2022 21:00 3,5 C 2,8 C 1,1 C 96 % 993,4 hPa 1,4 l/m 0,00 h 0,93 h 0 W/m 26,5 km/h (4 Bft) 94,17 %
08.01.2022 22:00 3,7 C 2,8 C 1,7 C 96 % 991,5 hPa 1,2 l/m 0,00 h 1,00 h 0 W/m 25,0 km/h (4 Bft) 97,70 %
08.01.2022 23:00 3,8 C 2,8 C 1,7 C 97 % 990,1 hPa 1,6 l/m 0,00 h 1,00 h 0 W/m 23,6 km/h (4 Bft) 97,65 %
09.01.2022 00:00 3,8 C 3,0 C 1,8 C 97 % 989,0 hPa 1,2 l/m 0,00 h 0,97 h 0 W/m 22,5 km/h (4 Bft) 94,41 %
09.01.2022 01:00 3,9 C 3,3 C 2,2 C 97 % 988,3 hPa 1,6 l/m 0,00 h 1,00 h 0 W/m 17,8 km/h (3 Bft) 98,65 %
09.01.2022 02:00 4,2 C 3,5 C 2,5 C 98 % 988,5 hPa 1,6 l/m 0,00 h 1,00 h 0 W/m 10,2 km/h (2 Bft) 95,41 %
09.01.2022 03:00 4,7 C 3,9 C 2,8 C 98 % 990,5 hPa 2,6 l/m 0,00 h 1,00 h 0 W/m 30,9 km/h (5 Bft) 97,22 %
09.01.2022 04:00 4,9 C 4,2 C 3,1 C 97 % 992,1 hPa 1,4 l/m 0,00 h 0,97 h 0 W/m 29,6 km/h (5 Bft) 92,39 %
09.01.2022 05:00 5,1 C 4,3 C 3,3 C 97 % 993,7 hPa 0,4 l/m 0,00 h 0,30 h 0 W/m 21,2 km/h (4 Bft) 98,44 %
09.01.2022 06:00 5,0 C 4,4 C 3,1 C 96 % 995,5 hPa 0,0 l/m 0,00 h 0,00 h 0 W/m 22,0 km/h (4 Bft) 94,14 %
09.01.2022 07:00 4,7 C 4,0 C 2,7 C 94 % 996,8 hPa 0,0 l/m 0,00 h 0,00 h 0 W/m 19,9 km/h (4 Bft) 98,01 %
09.01.2022 08:00 4,5 C 3,9 C 2,2 C 94 % 998,0 hPa 0,0 l/m 0,00 h 0,00 h 6 W/m 15,9 km/h (3 Bft) 98,79 %
09.01.2022 09:00 4,4 C 3,9 C 2,2 C 93 % 999,0 hPa 0,0 l/m 0,00 h 0,00 h 24 W/m 16,4 km/h (3 Bft) 94,38 %
09.01.2022 10:00 4,6 C 4,3 C 2,2 C 93 % 999,8 hPa 0,0 l/m 0,07 h 0,07 h 70 W/m 16,6 km/h (3 Bft) 97,93 %
09.01.2022 11:00 4,8 C 4,6 C 2,6 C 94 % 1000,8 hPa 0,0 l/m 0,03 h 0,57 h 74 W/m 16,4 km/h (3 Bft) 99,43 %
09.01.2022 12:00 5,2 C 5,1 C 3,1 C 93 % 1001,4 hPa 0,0 l/m 0,10 h 0,33 h 110 W/m 15,4 km/h (3 Bft) 94,70 %
09.01.2022 13:00 5,8 C 6,3 C 3,9 C 91 % 1001,9 hPa 0,0 l/m 0,27 h 0,00 h 130 W/m 14,8 km/h (3 Bft) 99,41 %
09.01.2022 14:00 5,8 C 7,7 C 3,4 C 89 % 1002,4 hPa 0,0 l/m 0,70 h 0,00 h 161 W/m 12,0 km/h (2 Bft) 98,08 %
09.01.2022 15:00 5,6 C 5,6 C 3,3 C 90 % 1002,9 hPa 0,0 l/m 0,37 h 0,00 h 80 W/m 11,3 km/h (2 Bft) 94,14 %
09.01.2022 16:00 5,0 C 4,0 C 2,5 C 92 % 1003,6 hPa 0,0 l/m 0,00 h 0,00 h 13 W/m 5,0 km/h (1 Bft) 99,50 %
09.01.2022 17:00 4,4 C 3,7 C 2,1 C 93 % 1004,4 hPa 0,0 l/m 0,00 h 0,00 h 0 W/m 6,4 km/h (2 Bft) 95,94 %
09.01.2022 18:00 4,1 C 3,1 C 1,8 C 93 % 1005,3 hPa 0,0 l/m 0,00 h 0,00 h 0 W/m 5,2 km/h (1 Bft) 98,44 %
09.01.2022 19:00 3,4 C 2,1 C 0,8 C 93 % 1006,3 hPa 0,0 l/m 0,00 h 0,00 h 0 W/m 5,1 km/h (1 Bft) 98,57 %
09.01.2022 20:00 2,6 C 1,5 C 0,4 C 94 % 1007,2 hPa 0,0 l/m 0,00 h 0,00 h 0 W/m 4,9 km/h (1 Bft) 96,73 %
09.01.2022 21:00 2,2 C 1,0 C -0,2 C 95 % 1008,2 hPa 0,0 l/m 0,00 h 0,00 h 0 W/m 1,0 km/h (0 Bft) 95,94 %
09.01.2022 22:00 1,8 C 0,8 C -0,6 C 95 % 1008,9 hPa 0,0 l/m 0,00 h 0,00 h 0 W/m 3,1 km/h (1 Bft) 96,45 %
09.01.2022 23:00 1,6 C 0,3 C -0,8 C 96 % 1009,9 hPa 0,0 l/m 0,00 h 0,00 h 0 W/m 1,7 km/h (1 Bft) 98,08 %
Min-Datum _ 08.01.22 08.01.22 08.01.22 03.01.22 09.01.22 - - - - 04.01.22 06.01.22
_ Min-Zeit 06:50 06:06 06:14 12:24 01:58 - - - - 05:44 00:02
Minimum _ 0,3 C -0,6 C -1,7 C 84 % 988,1 hPa - - - - 0,0 km/h (0 Bft) 11,11 %
Max-Datum _ 03.01.22 03.01.22 03.01.22 04.01.22 06.01.22 09.01.22 03.01.22 04.01.22 09.01.22 09.01.22 03.01.22
_ Max-Zeit 12:22 12:18 12:12 04:38 11:10 03:02 10:22 19:07 14:12 04:24 00:26
Maximum _ 11,6 C 12,2 C 8,3 C 98 % 1020,2 hPa 2,6 l/m 0,03 h 0,08 h 296 W/m 54,7 km/h
NO (7 Bft)
100,00 %
Durchschnitt _ 4,6 C 4,0 C 2,2 C 94 % 1007,4 hPa #31,4 l/m #5:24 h #37:30 h 55 W/m 14,6 km/h (3 Bft) 97,06 %
© 2022 W. Hausmann